Time;durP1;ratioP1;P1;durP2;ratioP2;P2;SDS_P1;SDS_P2;PMS_P1;PMS_P2;Temp;Humidity;BMP_temperature;BMP_pressure;BME280_temperature;BME280_humidity;BME280_pressure;Samples;Min_cycle;Max_cycle;Signal;HPM_P1;HPM_P2
2022/10/18 00:00:56;;;;;;;17.02;12.57;;;;;;;13.77;100.00;102426.50;5052528;28;20028;-64
2022/10/18 00:03:22;;;;;;;18.50;14.70;;;;;;;13.77;100.00;102418.69;5066930;28;20035;-65
2022/10/18 00:05:48;;;;;;;14.80;13.32;;;;;;;13.77;100.00;102429.09;5067536;28;20047;-65
2022/10/18 00:08:15;;;;;;;15.68;14.00;;;;;;;13.78;100.00;102417.88;5063214;28;20040;-65
2022/10/18 00:10:40;;;;;;;18.48;13.27;;;;;;;13.77;100.00;102418.69;5047734;28;20025;-65
2022/10/18 00:13:06;;;;;;;16.63;13.85;;;;;;;13.76;100.00;102412.56;5047359;28;20475;-65
2022/10/18 00:15:31;;;;;;;15.00;13.38;;;;;;;13.76;100.00;102409.09;5064402;28;20028;-66
2022/10/18 00:17:56;;;;;;;16.98;14.68;;;;;;;13.77;100.00;102413.47;5072203;28;20107;-65
2022/10/18 00:20:22;;;;;;;15.02;13.50;;;;;;;13.76;100.00;102415.16;5046782;28;20028;-64
2022/10/18 00:22:47;;;;;;;15.82;14.32;;;;;;;13.75;100.00;102417.72;5047352;28;20036;-65
2022/10/18 00:25:12;;;;;;;15.65;13.88;;;;;;;13.74;100.00;102413.34;5046687;28;20545;-65
2022/10/18 00:27:38;;;;;;;15.77;13.85;;;;;;;13.73;100.00;102414.16;5056935;28;20036;-65
2022/10/18 00:30:04;;;;;;;16.77;14.20;;;;;;;13.73;100.00;102419.34;5049850;28;20027;-65
2022/10/18 00:32:42;;;;;;;15.73;14.10;;;;;;;13.73;100.00;102416.75;5044129;28;20064;-65
2022/10/18 00:35:08;;;;;;;15.50;13.77;;;;;;;13.73;100.00;102408.94;5046780;28;20025;-65
2022/10/18 00:37:34;;;;;;;15.55;14.05;;;;;;;13.73;100.00;102416.75;5046701;28;20515;-65
2022/10/18 00:40:00;;;;;;;13.55;12.20;;;;;;;13.73;100.00;102414.16;5046627;28;20033;-65
2022/10/18 00:42:29;;;;;;;15.55;13.95;;;;;;;13.71;100.00;102413.22;5046130;28;20114;-65
2022/10/18 00:45:00;;;;;;;18.92;14.00;;;;;;;13.70;100.00;102414.91;5046498;28;20084;-65
2022/10/18 00:47:26;;;;;;;15.27;13.77;;;;;;;13.69;100.00;102415.72;5052827;28;20022;-64
2022/10/18 00:49:55;;;;;;;14.93;13.60;;;;;;;13.68;100.00;102417.47;5066672;28;20028;-65
2022/10/18 00:52:26;;;;;;;16.35;13.90;;;;;;;13.68;100.00;102420.06;5051798;28;20476;-65
2022/10/18 00:54:54;;;;;;;18.13;14.23;;;;;;;13.68;100.00;102421.78;5056694;28;20508;-65
2022/10/18 00:57:20;;;;;;;15.73;14.13;;;;;;;13.66;100.00;102421.72;5060513;28;20044;-65
2022/10/18 00:59:46;;;;;;;14.88;13.45;;;;;;;13.67;100.00;102420.88;5046836;28;20025;-65
2022/10/18 01:02:14;;;;;;;16.48;13.65;;;;;;;13.66;100.00;102419.09;5045243;28;20025;-65
2022/10/18 01:04:40;;;;;;;14.63;13.07;;;;;;;13.65;100.00;102422.50;5073669;28;20475;-64
2022/10/18 01:07:25;;;;;;;17.30;13.80;;;;;;;13.66;100.00;102431.22;5073914;28;20028;-65
2022/10/18 01:10:02;;;;;;;15.38;13.63;;;;;;;13.66;100.00;102439.03;5056510;28;20446;-65
2022/10/18 01:12:55;;;;;;;16.42;13.65;;;;;;;13.65;100.00;102435.53;5052666;28;20473;-66
2022/10/18 01:15:34;;;;;;;15.50;12.93;;;;;;;13.65;100.00;102438.13;5066363;28;20024;-65
2022/10/18 01:18:26;;;;;;;14.25;12.70;;;;;;;13.64;100.00;102438.97;5066335;28;20104;-65
2022/10/18 01:21:07;;;;;;;14.98;13.35;;;;;;;13.64;100.00;102432.88;5065807;28;20242;-65
2022/10/18 01:23:44;;;;;;;15.00;13.43;;;;;;;13.63;100.00;102429.41;5066519;28;20083;-65
2022/10/18 01:26:27;;;;;;;14.73;13.27;;;;;;;13.63;100.00;102434.59;5066230;28;20107;-64
2022/10/18 01:29:16;;;;;;;15.35;13.68;;;;;;;13.63;100.00;102434.59;5065910;28;20103;-65
2022/10/18 01:31:49;;;;;;;15.85;13.75;;;;;;;13.61;100.00;102428.44;5051821;28;20437;-65
2022/10/18 01:34:17;;;;;;;15.57;13.18;;;;;;;13.62;100.00;102432.81;5066460;28;20505;-65
2022/10/18 01:36:47;;;;;;;14.38;12.80;;;;;;;13.61;100.00;102431.03;5061862;28;20025;-65
2022/10/18 01:39:22;;;;;;;16.77;13.38;;;;;;;13.62;100.00;102437.09;5047029;28;20027;-65
2022/10/18 01:41:50;;;;;;;14.70;13.15;;;;;;;13.60;100.00;102436.19;5067935;28;20031;-65
2022/10/18 01:44:20;;;;;;;15.75;13.50;;;;;;;13.60;100.00;102437.03;5069697;28;20064;-65
2022/10/18 01:46:46;;;;;;;15.77;12.70;;;;;;;13.60;100.00;102434.44;5072415;28;20585;-65
2022/10/18 01:49:11;;;;;;;15.70;14.10;;;;;;;13.60;100.00;102434.44;5070348;28;20099;-65
2022/10/18 01:51:36;;;;;;;14.85;13.30;;;;;;;13.62;100.00;102437.09;5069363;28;20028;-65
2022/10/18 01:54:02;;;;;;;14.90;13.50;;;;;;;13.60;100.00;102434.44;5069289;28;20036;-65
2022/10/18 01:56:55;;;;;;;14.60;13.10;;;;;;;13.60;100.00;102438.78;5071134;28;20028;-65
2022/10/18 01:59:42;;;;;;;16.15;14.05;;;;;;;13.58;100.00;102430.91;5084307;28;20047;-65
2022/10/18 02:02:44;;;;;;;19.08;13.55;;;;;;;13.57;100.00;102439.53;5086165;28;20263;-66
2022/10/18 02:05:21;;;;;;;18.08;13.40;;;;;;;13.57;100.00;102434.31;5075329;28;20035;-65
2022/10/18 02:07:49;;;;;;;15.30;12.77;;;;;;;13.55;100.00;102431.63;5088660;28;20169;-65
2022/10/18 02:10:26;;;;;;;14.15;12.82;;;;;;;13.54;100.00;102440.28;5049502;28;20313;-64
2022/10/18 02:12:54;;;;;;;15.07;13.45;;;;;;;13.56;100.00;102442.97;5063866;28;20028;-65
2022/10/18 02:15:30;;;;;;;17.38;13.75;;;;;;;13.55;100.00;102439.44;5089732;28;20111;-65
2022/10/18 02:17:56;;;;;;;18.30;13.85;;;;;;;13.54;100.00;102429.88;5076318;28;20077;-64
2022/10/18 02:20:24;;;;;;;13.70;12.25;;;;;;;13.54;100.00;102428.97;5082794;28;20028;-65
2022/10/18 02:22:53;;;;;;;13.25;11.93;;;;;;;13.52;100.00;102436.72;5068832;28;20028;-65
2022/10/18 02:25:29;;;;;;;13.40;12.20;;;;;;;13.50;100.00;102437.44;5068990;28;20028;-64
2022/10/18 02:27:54;;;;;;;14.38;12.30;;;;;;;13.48;100.00;102433.84;5069607;28;20036;-64
2022/10/18 02:30:28;;;;;;;16.85;12.88;;;;;;;13.47;100.00;102432.09;5071308;28;20031;-65
2022/10/18 02:33:10;;;;;;;14.60;12.65;;;;;;;13.44;100.00;102438.03;5089906;28;20032;-64
2022/10/18 02:35:42;;;;;;;12.27;11.02;;;;;;;13.42;100.00;102435.34;5071498;28;20582;-65
2022/10/18 02:38:09;;;;;;;13.13;11.82;;;;;;;13.40;100.00;102431.78;5068879;28;20028;-65
2022/10/18 02:40:34;;;;;;;13.80;12.50;;;;;;;13.39;100.00;102432.63;5068503;28;20047;-65
2022/10/18 02:42:59;;;;;;;16.05;12.27;;;;;;;13.39;100.00;102443.03;5068653;28;20040;-64
2022/10/18 02:45:26;;;;;;;15.50;12.40;;;;;;;13.39;100.00;102440.44;5082103;28;20038;-65
2022/10/18 02:47:51;;;;;;;13.35;11.82;;;;;;;13.39;100.00;102443.03;5048164;28;20017;-65
2022/10/18 02:50:17;;;;;;;17.92;12.52;;;;;;;13.37;100.00;102444.69;5073943;28;20031;-66
2022/10/18 02:52:43;;;;;;;15.88;12.82;;;;;;;13.38;100.00;102448.19;5075050;28;20035;-64
2022/10/18 02:55:09;;;;;;;13.95;12.27;;;;;;;13.38;100.00;102443.88;5089157;28;20040;-64
2022/10/18 02:57:35;;;;;;;14.20;12.52;;;;;;;13.38;100.00;102445.56;5060600;28;20036;-65
2022/10/18 03:00:00;;;;;;;12.77;11.57;;;;;;;13.37;100.00;102447.28;5071138;28;20029;-65
2022/10/18 03:02:26;;;;;;;12.27;11.10;;;;;;;13.37;100.00;102436.88;5077453;28;20043;-65
2022/10/18 03:04:51;;;;;;;12.77;11.48;;;;;;;13.38;100.00;102443.88;5074158;28;20049;-65
2022/10/18 03:07:16;;;;;;;13.90;11.90;;;;;;;13.39;100.00;102444.75;5076754;28;20067;-65
2022/10/18 03:09:42;;;;;;;13.38;11.40;;;;;;;13.38;100.00;102443.88;5053624;28;20651;-65
2022/10/18 03:12:07;;;;;;;14.90;12.00;;;;;;;13.37;100.00;102436.88;5048626;28;20432;-65
2022/10/18 03:14:32;;;;;;;14.30;12.77;;;;;;;13.37;100.00;102447.28;5062017;28;20032;-65
2022/10/18 03:16:58;;;;;;;14.02;12.63;;;;;;;13.36;100.00;102448.13;5068529;28;20661;-65
2022/10/18 03:19:23;;;;;;;14.02;12.63;;;;;;;13.36;100.00;102445.50;5055984;28;20029;-65
2022/10/18 03:21:48;;;;;;;15.20;13.70;;;;;;;13.36;100.00;102442.00;5048094;28;20369;-65
2022/10/18 03:24:14;;;;;;;16.25;14.52;;;;;;;13.35;100.00;102438.50;5047991;28;20035;-65
2022/10/18 03:26:39;;;;;;;15.40;13.80;;;;;;;13.36;100.00;102447.22;5047585;28;20025;-64
2022/10/18 03:29:05;;;;;;;16.13;14.50;;;;;;;13.36;100.00;102448.13;5048121;28;20431;-64
2022/10/18 03:31:31;;;;;;;17.25;15.10;;;;;;;13.37;100.00;102446.38;5048641;28;20031;-65
2022/10/18 03:33:56;;;;;;;17.98;15.23;;;;;;;13.37;100.00;102456.78;5048394;28;20021;-66
2022/10/18 03:36:22;;;;;;;15.88;13.82;;;;;;;13.36;100.00;102455.03;5048905;28;20033;-65
2022/10/18 03:38:47;;;;;;;16.27;14.57;;;;;;;13.36;100.00;102455.94;5048179;28;20639;-65
2022/10/18 03:41:13;;;;;;;16.38;14.35;;;;;;;13.35;100.00;102448.91;5048832;28;20695;-65
2022/10/18 03:43:38;;;;;;;18.65;15.30;;;;;;;13.33;100.00;102459.25;5047872;28;20120;-65
2022/10/18 03:46:04;;;;;;;18.75;15.57;;;;;;;13.33;100.00;102455.75;5047132;28;20020;-64
2022/10/18 03:48:29;;;;;;;16.77;14.75;;;;;;;13.32;100.00;102449.69;5048377;28;20029;-64
2022/10/18 03:50:54;;;;;;;17.38;15.48;;;;;;;13.31;100.00;102449.63;5048293;28;20032;-65
2022/10/18 03:53:19;;;;;;;16.40;14.70;;;;;;;13.30;100.00;102448.72;5059905;28;20024;-65
2022/10/18 03:55:50;;;;;;;19.45;16.55;;;;;;;13.28;100.00;102446.84;5068011;28;20023;-65
2022/10/18 03:58:15;;;;;;;18.67;15.50;;;;;;;13.26;100.00;102438.09;5067874;28;20423;-64
2022/10/18 04:00:40;;;;;;;17.48;15.63;;;;;;;13.24;100.00;102435.41;5053339;28;20033;-65
2022/10/18 04:03:06;;;;;;;17.65;15.77;;;;;;;13.21;100.00;102433.56;5066044;28;20043;-65
2022/10/18 04:05:31;;;;;;;22.40;17.63;;;;;;;13.18;100.00;102435.13;5079593;28;20137;-64
2022/10/18 04:07:56;;;;;;;18.73;16.83;;;;;;;13.15;100.00;102445.41;5066492;28;20125;-65
2022/10/18 04:10:22;;;;;;;18.15;16.25;;;;;;;13.13;100.00;102437.50;5048478;28;20031;-64
2022/10/18 04:12:47;;;;;;;18.40;16.33;;;;;;;13.11;100.00;102431.34;5047834;28;20480;-65
2022/10/18 04:15:12;;;;;;;16.75;15.15;;;;;;;13.09;100.00;102430.38;5053682;28;20029;-65
2022/10/18 04:17:38;;;;;;;17.40;15.63;;;;;;;13.07;100.00;102434.63;5067341;28;20060;-65
2022/10/18 04:20:03;;;;;;;19.77;17.75;;;;;;;13.05;100.00;102439.75;5053594;28;20395;-64
2022/10/18 04:22:29;;;;;;;20.80;18.27;;;;;;;13.03;100.00;102440.50;5058055;28;20024;-65
2022/10/18 04:24:55;;;;;;;20.95;18.92;;;;;;;13.03;100.00;102436.19;5063038;28;20052;-65
2022/10/18 04:27:21;;;;;;;19.05;16.75;;;;;;;13.03;100.00;102441.38;5067394;28;20032;-65
2022/10/18 04:29:47;;;;;;;20.52;18.42;;;;;;;13.03;100.00;102443.09;5064919;28;20024;-65
2022/10/18 04:32:12;;;;;;;20.13;17.63;;;;;;;13.03;100.00;102456.09;5048363;28;20131;-64
2022/10/18 04:34:37;;;;;;;19.45;17.55;;;;;;;13.02;100.00;102451.72;5067014;28;20029;-65
2022/10/18 04:37:02;;;;;;;18.27;16.42;;;;;;;13.00;100.00;102454.28;5065956;28;20309;-65
2022/10/18 04:39:28;;;;;;;18.33;16.58;;;;;;;12.99;100.00;102454.19;5070058;28;20032;-65
2022/10/18 04:41:53;;;;;;;17.38;15.63;;;;;;;12.97;100.00;102455.00;5065210;28;20480;-65
2022/10/18 04:44:18;;;;;;;18.65;16.75;;;;;;;12.94;100.00;102446.16;5020876;28;20336;-65
2022/10/18 04:46:43;;;;;;;18.90;16.98;;;;;;;12.93;100.00;102449.59;5006848;28;20026;-65
2022/10/18 04:49:09;;;;;;;18.15;16.45;;;;;;;12.92;100.00;102452.97;5025669;28;20017;-65
2022/10/18 04:51:35;;;;;;;19.35;17.45;;;;;;;12.90;100.00;102455.53;5026561;28;20064;-65
2022/10/18 04:54:00;;;;;;;19.60;17.67;;;;;;;12.90;100.00;102457.25;5026205;28;20052;-65
2022/10/18 04:56:26;;;;;;;19.27;17.27;;;;;;;12.88;100.00;102459.75;5030007;28;20397;-65
2022/10/18 04:58:51;;;;;;;19.23;17.33;;;;;;;12.84;100.00;102450.03;5026191;28;20051;-64
2022/10/18 05:01:17;;;;;;;20.05;18.00;;;;;;;12.83;100.00;102458.63;5026489;28;20049;-64
2022/10/18 05:03:43;;;;;;;22.15;19.85;;;;;;;12.83;100.00;102459.53;5026065;28;20033;-64
2022/10/18 05:06:08;;;;;;;22.27;20.00;;;;;;;12.83;100.00;102458.63;5026424;28;20220;-65
2022/10/18 05:08:34;;;;;;;24.92;19.83;;;;;;;12.82;100.00;102457.78;5017487;28;20044;-64
2022/10/18 05:11:00;;;;;;;24.92;22.23;;;;;;;12.82;100.00;102457.78;5014415;28;20116;-64
2022/10/18 05:13:27;;;;;;;23.13;20.60;;;;;;;12.82;100.00;102456.88;5020297;28;20064;-64
2022/10/18 05:15:53;;;;;;;22.27;20.08;;;;;;;12.81;100.00;102470.66;5017426;28;20033;-64
2022/10/18 05:18:18;;;;;;;23.20;20.75;;;;;;;12.78;100.00;102465.34;5027995;28;20155;-65
2022/10/18 05:20:44;;;;;;;22.42;20.13;;;;;;;12.76;100.00;102470.47;5027000;28;20038;-65
2022/10/18 05:23:09;;;;;;;22.33;20.10;;;;;;;12.76;100.00;102477.38;5028185;28;20029;-65
2022/10/18 05:25:38;;;;;;;21.27;19.23;;;;;;;12.75;100.00;102475.59;5027200;28;20052;-65
2022/10/18 05:28:04;;;;;;;22.10;19.77;;;;;;;12.73;100.00;102472.91;5029965;28;20033;-65
2022/10/18 05:30:29;;;;;;;23.48;20.98;;;;;;;12.72;100.00;102482.44;5036315;28;20025;-64
2022/10/18 05:32:54;;;;;;;23.05;20.67;;;;;;;12.70;100.00;102480.59;5024180;28;20029;-65
2022/10/18 05:35:20;;;;;;;23.33;20.83;;;;;;;12.68;100.00;102477.88;5022066;28;20166;-64
2022/10/18 05:37:45;;;;;;;23.10;20.77;;;;;;;12.67;100.00;102473.50;5014039;28;20076;-65
2022/10/18 05:40:10;;;;;;;23.90;21.15;;;;;;;12.66;100.00;102479.53;5025572;28;20030;-65
2022/10/18 05:42:36;;;;;;;22.38;19.98;;;;;;;12.65;100.00;102480.34;5041037;28;20048;-65
2022/10/18 05:45:01;;;;;;;22.63;20.27;;;;;;;12.65;100.00;102475.13;5069926;28;20501;-64
2022/10/18 05:47:26;;;;;;;22.40;19.40;;;;;;;12.64;100.00;102478.56;5067142;28;20044;-64
2022/10/18 05:49:52;;;;;;;22.88;20.65;;;;;;;12.64;100.00;102480.25;5059527;28;20013;-64
2022/10/18 05:52:17;;;;;;;23.90;21.40;;;;;;;12.63;100.00;102476.75;5057949;28;20082;-64
2022/10/18 05:54:42;;;;;;;24.55;21.00;;;;;;;12.61;100.00;102478.38;5066222;28;20059;-64
2022/10/18 05:57:08;;;;;;;24.13;21.63;;;;;;;12.61;100.00;102478.38;5072396;28;20035;-64
2022/10/18 05:59:33;;;;;;;25.35;21.95;;;;;;;12.60;100.00;102493.13;5067951;28;20035;-64
2022/10/18 06:01:58;;;;;;;26.35;23.35;;;;;;;12.59;100.00;102490.44;5067911;28;20024;-64
2022/10/18 06:04:24;;;;;;;27.35;24.38;;;;;;;12.59;100.00;102503.44;5071172;28;20051;-64
2022/10/18 06:06:49;;;;;;;25.98;23.17;;;;;;;12.57;100.00;102497.28;5087098;28;20056;-64
2022/10/18 06:09:14;;;;;;;26.70;23.90;;;;;;;12.55;100.00;102489.41;5085299;28;20020;-64
2022/10/18 06:11:39;;;;;;;28.75;23.33;;;;;;;12.55;100.00;102491.09;5061799;28;20021;-64
2022/10/18 06:14:06;;;;;;;24.13;21.30;;;;;;;12.54;100.00;102497.13;5057561;28;20024;-64
2022/10/18 06:16:32;;;;;;;24.25;21.85;;;;;;;12.53;100.00;102500.53;5064736;28;20032;-64
2022/10/18 06:18:58;;;;;;;22.40;20.25;;;;;;;12.52;100.00;102501.34;5066047;28;20025;-64
2022/10/18 06:21:24;;;;;;;24.27;21.67;;;;;;;12.51;100.00;102509.94;5065807;28;20031;-64
2022/10/18 06:23:53;;;;;;;23.88;21.52;;;;;;;12.52;100.00;102509.16;5067013;28;20025;-64
2022/10/18 06:26:19;;;;;;;23.77;21.58;;;;;;;12.49;100.00;102505.56;5065147;28;20282;-64
2022/10/18 06:28:45;;;;;;;23.42;21.33;;;;;;;12.48;100.00;102506.38;5069072;28;20024;-64
2022/10/18 06:31:12;;;;;;;24.58;20.88;;;;;;;12.48;100.00;102508.97;5069226;28;20069;-64
2022/10/18 06:33:37;;;;;;;25.20;22.20;;;;;;;12.51;100.00;102517.75;5068977;28;20063;-64
2022/10/18 06:36:10;;;;;;;25.80;23.02;;;;;;;12.54;100.00;102523.13;5069435;28;20178;-64
2022/10/18 06:38:36;;;;;;;25.08;22.35;;;;;;;12.58;100.00;102530.25;5063521;28;20052;-64
2022/10/18 06:41:01;;;;;;;25.67;22.88;;;;;;;12.58;100.00;102515.56;5066099;28;20067;-64
2022/10/18 06:43:27;;;;;;;25.52;22.80;;;;;;;12.59;100.00;102516.44;5066969;28;20079;-64
2022/10/18 06:45:53;;;;;;;26.00;23.40;;;;;;;12.61;100.00;102522.59;5069060;28;20464;-64
2022/10/18 06:48:19;;;;;;;28.33;25.45;;;;;;;12.64;100.00;102520.19;5068732;28;20116;-64
2022/10/18 06:50:59;;;;;;;28.48;25.58;;;;;;;12.69;100.00;102528.19;5068442;28;20051;-64
2022/10/18 06:53:26;;;;;;;28.13;25.25;;;;;;;12.71;100.00;102532.66;5079845;28;20078;-64
2022/10/18 06:55:57;;;;;;;28.55;25.58;;;;;;;12.76;100.00;102545.00;5079608;28;20021;-64
2022/10/18 06:58:22;;;;;;;26.70;24.17;;;;;;;12.78;100.00;102551.16;5066894;28;20384;-64
2022/10/18 07:00:47;;;;;;;28.73;25.83;;;;;;;12.80;100.00;102552.16;5074699;28;20030;-65
2022/10/18 07:03:13;;;;;;;27.42;24.75;;;;;;;12.81;100.00;102560.03;5065191;28;20434;-64
2022/10/18 07:05:38;;;;;;;27.60;24.92;;;;;;;12.81;100.00;102560.03;5081361;28;20027;-63
2022/10/18 07:08:03;;;;;;;26.55;23.92;;;;;;;12.83;100.00;102562.69;5087775;28;20024;-64
2022/10/18 07:10:29;;;;;;;26.20;23.63;;;;;;;12.82;100.00;102560.94;5079576;28;20077;-64
2022/10/18 07:12:54;;;;;;;24.05;21.67;;;;;;;12.82;100.00;102561.81;5067468;28;20020;-64
2022/10/18 07:15:22;;;;;;;23.90;21.60;;;;;;;12.82;100.00;102572.22;5068907;28;20024;-64
2022/10/18 07:17:48;;;;;;;25.20;23.00;;;;;;;12.84;100.00;102574.91;5069474;28;20059;-64
2022/10/18 07:20:13;;;;;;;25.77;23.27;;;;;;;12.86;100.00;102573.28;5069077;28;20071;-64
2022/10/18 07:22:39;;;;;;;23.98;21.77;;;;;;;12.87;100.00;102575.06;5068997;28;20029;-64
2022/10/18 07:25:07;;;;;;;25.13;22.67;;;;;;;12.89;100.00;102572.53;5068745;28;20027;-64
2022/10/18 07:27:42;;;;;;;24.17;21.58;;;;;;;12.92;100.00;102586.59;5059448;28;20381;-64
2022/10/18 07:30:09;;;;;;;25.33;22.85;;;;;;;12.94;100.00;102587.56;5051151;28;20514;-64
2022/10/18 07:32:35;;;;;;;26.50;24.02;;;;;;;12.96;100.00;102585.94;5068818;28;20029;-63
2022/10/18 07:35:01;;;;;;;26.95;24.35;;;;;;;12.99;100.00;102590.38;5068459;28;20032;-64
2022/10/18 07:37:28;;;;;;;27.23;24.63;;;;;;;13.02;100.00;102594.84;5067603;28;20024;-64
2022/10/18 07:39:53;;;;;;;27.35;24.45;;;;;;;13.03;100.00;102596.63;5068292;28;20032;-64
2022/10/18 07:42:18;;;;;;;27.98;25.00;;;;;;;13.07;100.00;102601.19;5081777;28;20100;-65
2022/10/18 07:44:44;;;;;;;30.48;26.42;;;;;;;13.10;100.00;102619.53;5068316;28;20059;-64
2022/10/18 07:47:09;;;;;;;32.08;25.42;;;;;;;13.11;100.00;102616.13;5068160;28;20331;-64
2022/10/18 07:49:34;;;;;;;33.03;26.80;;;;;;;13.15;100.00;102617.19;5068908;28;20020;-64
2022/10/18 07:51:59;;;;;;;32.58;27.15;;;;;;;13.18;100.00;102622.53;5053403;28;20108;-64
2022/10/18 07:54:25;;;;;;;31.75;26.08;;;;;;;13.20;100.00;102637.41;5061737;28;20024;-64
2022/10/18 07:56:50;;;;;;;32.90;23.67;;;;;;;13.23;100.00;102640.97;5060485;28;20067;-64
2022/10/18 07:59:15;;;;;;;27.45;24.50;;;;;;;13.25;100.00;102644.56;5068268;28;20274;-64
2022/10/18 08:01:41;;;;;;;32.10;24.15;;;;;;;13.28;100.00;102642.09;5068274;28;20032;-64
2022/10/18 08:04:06;;;;;;;30.00;23.40;;;;;;;13.29;100.00;102644.75;5066974;28;20025;-64
2022/10/18 08:06:31;;;;;;;28.42;24.42;;;;;;;13.29;100.00;102642.16;5082025;28;20107;-64
2022/10/18 08:08:56;;;;;;;27.60;23.10;;;;;;;13.32;100.00;102651.84;5078198;28;20036;-64
2022/10/18 08:11:24;;;;;;;30.75;23.08;;;;;;;13.35;100.00;102656.34;5057310;28;20029;-65
2022/10/18 08:13:50;;;;;;;27.42;23.23;;;;;;;13.36;100.00;102659.00;5068442;28;20025;-65
2022/10/18 08:16:27;;;;;;;29.13;25.80;;;;;;;13.37;100.00;102663.38;5067105;28;20059;-63
2022/10/18 08:18:53;;;;;;;30.40;26.13;;;;;;;13.36;100.00;102664.22;5068152;28;20194;-64
2022/10/18 08:21:20;;;;;;;33.85;26.25;;;;;;;13.36;100.00;102663.31;5067685;28;20032;-64
2022/10/18 08:23:46;;;;;;;32.92;25.73;;;;;;;13.37;100.00;102668.59;5067596;28;20020;-64
2022/10/18 08:26:14;;;;;;;33.63;27.02;;;;;;;13.39;100.00;102669.56;5067918;28;20085;-64
2022/10/18 08:28:39;;;;;;;31.85;25.67;;;;;;;13.42;100.00;102667.09;5067197;28;20036;-64
2022/10/18 08:31:10;;;;;;;31.45;26.45;;;;;;;13.45;100.00;102674.19;5067651;28;20027;-64
2022/10/18 08:33:37;;;;;;;33.88;27.83;;;;;;;13.51;100.00;102684.91;5066650;28;20074;-64
2022/10/18 08:36:05;;;;;;;34.42;28.40;;;;;;;13.59;100.00;102685.31;5058395;28;20094;-64
2022/10/18 08:38:31;;;;;;;42.42;32.40;;;;;;;13.75;100.00;102679.13;5061071;28;20028;-64
2022/10/18 08:41:13;;;;;;;40.53;31.60;;;;;;;13.92;100.00;102687.75;5054429;28;20423;-64
2022/10/18 08:44:02;;;;;;;37.63;32.67;;;;;;;14.25;100.00;102686.66;5065146;28;20576;-64
2022/10/18 08:46:29;;;;;;;36.42;29.08;;;;;;;14.47;100.00;102686.75;5047904;28;20020;-64
2022/10/18 08:48:55;;;;;;;30.58;25.55;;;;;;;14.67;100.00;102686.75;5063989;28;20021;-64
2022/10/18 08:51:32;;;;;;;27.95;23.52;;;;;;;14.72;100.00;102687.84;5067483;28;20028;-64
2022/10/18 08:54:06;;;;;;;28.38;21.75;;;;;;;14.72;100.00;102682.63;5052430;28;20550;-65
2022/10/18 08:56:32;;;;;;;26.20;21.13;;;;;;;14.69;100.00;102685.09;5067603;28;20024;-65
2022/10/18 08:59:01;;;;;;;24.50;20.48;;;;;;;14.64;100.00;102696.22;5067278;28;20103;-64
2022/10/18 09:02:03;;;;;;;25.80;19.60;;;;;;;14.63;100.00;102694.44;5066959;28;20029;-64
2022/10/18 09:04:44;;;;;;;23.02;19.70;;;;;;;14.67;100.00;102690.25;5069659;28;20043;-64
2022/10/18 09:07:37;;;;;;;25.35;19.67;;;;;;;14.66;100.00;102683.25;5077144;28;20028;-64
2022/10/18 09:10:18;;;;;;;19.60;17.10;;;;;;;14.71;100.00;102692.19;5086740;28;20502;-64
2022/10/18 09:13:48;;;;;;;24.13;17.25;;;;;;;14.72;100.00;102687.84;5072296;28;20173;-64
2022/10/18 09:16:26;;;;;;;22.75;16.13;;;;;;;14.72;100.00;102693.06;5008105;28;20077;-65
2022/10/18 09:19:19;;;;;;;20.30;16.10;;;;;;;14.70;100.00;102694.72;5024108;28;20552;-64
2022/10/18 09:22:11;;;;;;;18.85;15.65;;;;;;;14.65;100.00;102695.41;5063278;28;20033;-64
2022/10/18 09:24:38;;;;;;;21.95;16.40;;;;;;;14.62;100.00;102700.50;5052778;28;20354;-64
2022/10/18 09:27:13;;;;;;;21.17;16.50;;;;;;;14.61;100.00;102703.00;5053687;28;20032;-64
2022/10/18 09:29:55;;;;;;;22.33;15.95;;;;;;;14.56;100.00;102692.38;5066761;28;20032;-64
2022/10/18 09:32:29;;;;;;;19.83;17.45;;;;;;;14.55;100.00;102687.09;5055458;28;20478;-64
2022/10/18 09:34:59;;;;;;;21.70;16.48;;;;;;;14.53;100.00;102687.91;5066308;28;20451;-64
2022/10/18 09:37:29;;;;;;;20.20;16.13;;;;;;;14.52;100.00;102693.06;5067189;28;20028;-64
2022/10/18 09:40:03;;;;;;;22.98;16.67;;;;;;;14.51;100.00;102693.91;5052236;28;20377;-65
2022/10/18 09:42:35;;;;;;;21.52;17.13;;;;;;;14.51;100.00;102688.69;5054451;28;20404;-64
2022/10/18 09:45:14;;;;;;;24.85;17.48;;;;;;;14.52;100.00;102690.44;5066634;28;20103;-65
2022/10/18 09:48:16;;;;;;;21.95;17.88;;;;;;;14.52;100.00;102706.09;5066662;28;20112;-65
2022/10/18 09:50:55;;;;;;;22.02;17.02;;;;;;;14.55;100.00;102707.97;5044280;28;20032;-64
2022/10/18 09:53:38;;;;;;;23.27;17.30;;;;;;;14.56;100.00;102708.03;5053855;28;20040;-65
2022/10/18 09:56:09;;;;;;;26.63;17.25;;;;;;;14.56;100.00;102708.03;5047075;28;20025;-64
2022/10/18 09:58:42;;;;;;;22.23;17.80;;;;;;;14.57;100.00;102709.81;5061013;28;20628;-64
2022/10/18 10:01:09;;;;;;;25.00;18.50;;;;;;;14.59;100.00;102704.69;5055472;28;20031;-64
2022/10/18 10:03:34;;;;;;;27.42;18.55;;;;;;;14.59;100.00;102700.34;5071159;28;20032;-64
2022/10/18 10:06:11;;;;;;;21.05;17.13;;;;;;;14.58;100.00;102697.66;5085274;28;20039;-64
2022/10/18 10:08:41;;;;;;;20.75;16.75;;;;;;;14.58;100.00;102697.66;5089593;28;20023;-64
2022/10/18 10:11:30;;;;;;;26.02;19.10;;;;;;;14.55;100.00;102700.16;5061986;28;20044;-64
2022/10/18 10:14:18;;;;;;;26.17;16.98;;;;;;;14.50;100.00;102702.53;5069819;28;20056;-65
2022/10/18 10:16:47;;;;;;;22.15;16.15;;;;;;;14.46;100.00;102691.09;5074548;28;20031;-64
2022/10/18 10:19:53;;;;;;;19.25;16.73;;;;;;;14.48;100.00;102696.38;5079642;28;20035;-64
2022/10/18 10:22:26;;;;;;;22.92;15.55;;;;;;;14.48;100.00;102698.97;5040658;28;20443;-64
2022/10/18 10:24:53;;;;;;;23.10;16.80;;;;;;;14.45;100.00;102693.59;5062222;28;20028;-64
2022/10/18 10:27:33;;;;;;;21.27;15.50;;;;;;;14.49;100.00;102695.53;5048013;28;20051;-64
2022/10/18 10:30:00;;;;;;;26.33;17.50;;;;;;;14.49;100.00;102695.53;5063675;28;20533;-64
2022/10/18 10:32:29;;;;;;;22.40;16.45;;;;;;;14.50;100.00;102703.44;5057591;28;20028;-64
2022/10/18 10:34:55;;;;;;;17.83;14.77;;;;;;;14.53;100.00;102714.00;5069867;28;20028;-64
2022/10/18 10:37:35;;;;;;;19.75;16.05;;;;;;;14.57;100.00;102714.16;5063640;28;20227;-65
2022/10/18 10:40:14;;;;;;;24.42;15.25;;;;;;;14.60;100.00;102715.19;5063097;28;20043;-65
2022/10/18 10:42:54;;;;;;;18.50;13.32;;;;;;;14.65;100.00;102718.91;5061993;28;20045;-64
2022/10/18 10:45:22;;;;;;;17.75;15.40;;;;;;;14.71;100.00;102722.59;5051243;28;20134;-64
2022/10/18 10:47:48;;;;;;;19.25;15.07;;;;;;;14.76;100.00;102731.53;5070101;28;20024;-65
2022/10/18 10:50:25;;;;;;;20.60;14.48;;;;;;;14.83;100.00;102728.41;5069433;28;20020;-64
2022/10/18 10:52:52;;;;;;;18.70;15.52;;;;;;;14.91;100.00;102717.41;5069358;28;20059;-64
2022/10/18 10:55:26;;;;;;;17.42;13.65;;;;;;;14.96;100.00;102718.50;5069709;28;20107;-64
2022/10/18 10:57:53;;;;;;;17.35;12.82;;;;;;;15.05;100.00;102729.34;5062437;28;20059;-63
2022/10/18 11:00:40;;;;;;;17.48;11.95;;;;;;;15.13;100.00;102727.06;5062054;28;20032;-64
2022/10/18 11:03:15;;;;;;;16.77;11.05;;;;;;;15.28;100.00;102729.44;5061223;28;20033;-64
2022/10/18 11:05:48;;;;;;;14.55;10.20;;;;;;;15.39;100.00;102731.59;5076764;28;20128;-64
2022/10/18 11:08:19;;;;;;;14.63;9.65;;;;;;;15.48;100.00;102735.50;5089716;28;20036;-65
2022/10/18 11:10:59;;;;;;;15.85;8.40;;;;;;;15.54;100.00;102729.63;5077613;28;20060;-64
2022/10/18 11:13:48;;;;;;;15.10;7.57;;;;;;;15.70;100.00;102736.38;5068761;28;20553;-65